createdAt,value
2023-01-25T00:09:47.799Z,1024.7
2023-01-25T00:19:53.652Z,1024.6
2023-01-25T00:30:01.605Z,1024.6
2023-01-25T00:40:07.749Z,1024.5
2023-01-25T00:50:15.731Z,1024.4
2023-01-25T01:00:23.634Z,1024.3
2023-01-25T01:10:29.793Z,1024.2
2023-01-25T01:20:35.938Z,1024.2
2023-01-25T01:30:43.881Z,1024.3
2023-01-25T01:40:51.811Z,1024.2
2023-01-25T01:50:58.015Z,1024.3
2023-01-25T02:11:12.099Z,1024.1
2023-01-25T02:21:20.005Z,1024.2
2023-01-25T02:31:28.088Z,1024.1
2023-01-25T02:41:35.887Z,1023.9
2023-01-25T02:51:42.084Z,1024
2023-01-25T03:01:50.052Z,1023.9
2023-01-25T03:11:56.166Z,1023.9
2023-01-25T03:22:04.095Z,1023.9
2023-01-25T03:32:12.129Z,1024
2023-01-25T03:42:19.971Z,1023.8
2023-01-25T03:52:26.158Z,1023.8
2023-01-25T04:02:34.118Z,1023.7
2023-01-25T04:12:40.241Z,1023.5
2023-01-25T04:22:48.155Z,1023.3
2023-01-25T04:32:54.344Z,1023.1
2023-01-25T04:43:02.257Z,1023.1
2023-01-25T04:53:08.474Z,1023.1
2023-01-25T05:03:16.368Z,1023
2023-01-25T05:13:22.543Z,1023
2023-01-25T05:23:30.449Z,1022.9
2023-01-25T05:33:38.415Z,1022.8
2023-01-25T05:43:44.540Z,1022.8
2023-01-25T05:53:52.503Z,1022.8
2023-01-25T06:04:00.420Z,1022.8
2023-01-25T06:14:08.389Z,1022.7
2023-01-25T06:24:16.365Z,1022.7
2023-01-25T06:34:24.261Z,1022.7
2023-01-25T06:44:32.185Z,1022.6
2023-01-25T06:54:38.365Z,1022.7
2023-01-25T07:04:44.483Z,1022.7
2023-01-25T07:14:52.452Z,1022.7
2023-01-25T07:25:00.387Z,1022.7
2023-01-25T07:35:08.643Z,1022.7
2023-01-25T07:45:16.272Z,1022.7
2023-01-25T07:55:24.250Z,1022.6
2023-01-25T08:05:30.361Z,1022.4
2023-01-25T08:15:38.338Z,1022.6
2023-01-25T08:25:44.467Z,1022.6
2023-01-25T08:35:50.651Z,1022.4
2023-01-25T08:45:56.788Z,1022.4
2023-01-25T08:56:02.954Z,1022.4
2023-01-25T09:06:09.065Z,1022.3
2023-01-25T09:16:15.287Z,1022.3
2023-01-25T09:26:23.200Z,1022.3
2023-01-25T09:36:29.419Z,1022.2
2023-01-25T09:46:37.331Z,1021.9
2023-01-25T09:56:45.235Z,1022
2023-01-25T10:07:00.286Z,1021.9
2023-01-25T10:17:01.169Z,1021.8
2023-01-25T10:27:09.067Z,1021.7
2023-01-25T10:37:15.227Z,1021.6
2023-01-25T10:47:23.162Z,1021.5
2023-01-25T10:57:29.323Z,1021.3
2023-01-25T11:07:37.235Z,1021.2
2023-01-25T11:17:43.400Z,1021.2
2023-01-25T11:27:51.336Z,1021
2023-01-25T11:37:59.304Z,1020.7
2023-01-25T11:48:07.229Z,1020.5
2023-01-25T11:58:15.223Z,1020.2
2023-01-25T12:08:23.091Z,1020.1
2023-01-25T12:18:29.266Z,1019.8
2023-01-25T12:28:35.415Z,1019.6
2023-01-25T12:38:43.369Z,1019.3
2023-01-25T12:48:51.284Z,1019.1
2023-01-25T12:58:57.473Z,1018.9
2023-01-25T13:09:05.382Z,1018.6
2023-01-25T13:19:11.571Z,1018.4
2023-01-25T13:29:19.497Z,1018.3
2023-01-25T13:39:25.681Z,1018.2
2023-01-25T13:49:31.815Z,1018.2
2023-01-25T13:59:39.828Z,1018.1
2023-01-25T14:09:47.703Z,1017.9
2023-01-25T14:19:55.623Z,1017.8
2023-01-25T14:30:01.793Z,1017.8
2023-01-25T14:40:08.272Z,1017.7
2023-01-25T14:50:15.877Z,1017.7
2023-01-25T15:00:23.838Z,1017.6
2023-01-25T15:10:31.779Z,1017.5
2023-01-25T15:20:39.934Z,1017.4
2023-01-25T15:30:47.680Z,1017.2
2023-01-25T15:40:55.581Z,1017.1
2023-01-25T15:51:03.530Z,1017
2023-01-25T16:01:11.548Z,1016.9
2023-01-25T16:11:19.412Z,1016.9
2023-01-25T16:21:27.369Z,1016.9
2023-01-25T16:31:33.810Z,1016.8
2023-01-25T16:41:41.473Z,1016.7
2023-01-25T16:51:47.618Z,1016.7
2023-01-25T17:01:53.792Z,1016.7
2023-01-25T17:12:01.733Z,1016.6
2023-01-25T17:22:09.666Z,1016.6
2023-01-25T17:32:15.784Z,1016.4
2023-01-25T17:42:22.000Z,1016.5
2023-01-25T17:52:29.914Z,1016.4
2023-01-25T18:02:36.151Z,1016.4
2023-01-25T18:12:46.413Z,1016.5
2023-01-25T18:22:51.943Z,1016.4
2023-01-25T18:32:58.101Z,1016.3
2023-01-25T18:43:04.408Z,1016.2
2023-01-25T18:53:12.177Z,1016
2023-01-25T19:03:20.125Z,1015.9
2023-01-25T19:13:28.871Z,1015.9
2023-01-25T19:23:36.022Z,1015.7
2023-01-25T19:33:43.986Z,1015.3
2023-01-25T19:43:51.904Z,1015.1
2023-01-25T19:53:59.857Z,1014.9
2023-01-25T20:04:07.800Z,1014.7
2023-01-25T20:14:15.787Z,1014.7
2023-01-25T20:24:23.803Z,1014.8
2023-01-25T20:34:31.606Z,1014.6
2023-01-25T20:44:37.807Z,1014.6
2023-01-25T20:54:45.740Z,1014.6
2023-01-25T21:04:51.901Z,1014.6
2023-01-25T21:14:59.878Z,1014.4
2023-01-25T21:25:08.206Z,1014.2
2023-01-25T21:35:13.919Z,1014.1
2023-01-25T21:45:20.092Z,1014.2
2023-01-25T21:55:26.225Z,1014.3
2023-01-25T22:05:34.177Z,1014.4
2023-01-25T22:15:42.184Z,1014.3
2023-01-25T22:25:48.286Z,1014.3
2023-01-25T22:35:54.407Z,1014.3
2023-01-25T22:46:02.418Z,1014.3
2023-01-25T22:56:08.509Z,1014.2
2023-01-25T23:06:14.697Z,1014.1
2023-01-25T23:16:22.642Z,1014
2023-01-25T23:26:30.573Z,1014
2023-01-25T23:36:38.520Z,1013.8
2023-01-25T23:46:46.472Z,1013.7
2023-01-25T23:56:54.389Z,1013.6
